Time;durP1;ratioP1;P1;durP2;ratioP2;P2;SDS_P1;SDS_P2;PMS_P1;PMS_P2;Temp;Humidity;BMP_temperature;BMP_pressure;BME280_temperature;BME280_humidity;BME280_pressure;Samples;Min_cycle;Max_cycle;Signal;HPM_P1;HPM_P2
2022/10/29 00:01:17;;;;;;;19.88;6.55;;;17.60;99.90;;;;;;4186460;28;20234;-95
2022/10/29 00:03:19;;;;;;;21.65;6.45;;;17.60;99.90;;;;;;4185866;28;20214;-95
2022/10/29 00:05:20;;;;;;;23.48;6.72;;;17.70;99.90;;;;;;4185152;28;20183;-89
2022/10/29 00:07:20;;;;;;;18.63;6.30;;;17.70;99.90;;;;;;4184812;28;20590;-90
2022/10/29 00:09:21;;;;;;;18.30;5.95;;;17.60;99.90;;;;;;4185159;28;20529;-89
2022/10/29 00:11:22;;;;;;;15.40;5.63;;;17.60;99.90;;;;;;4185159;28;20214;-88
2022/10/29 00:13:22;;;;;;;25.77;6.53;;;17.70;99.90;;;;;;4168044;28;20271;-96
2022/10/29 00:15:23;;;;;;;16.80;6.65;;;17.70;99.90;;;;;;4167464;28;20212;-89
2022/10/29 00:17:24;;;;;;;16.08;5.85;;;17.50;99.90;;;;;;4184277;28;20176;-88
2022/10/29 00:19:26;;;;;;;14.82;6.25;;;17.50;99.90;;;;;;4167831;28;20212;-89
2022/10/29 00:21:27;;;;;;;20.67;6.43;;;17.40;99.90;;;;;;4168251;28;20258;-88
2022/10/29 00:23:27;;;;;;;20.75;5.35;;;17.40;99.90;;;;;;4184620;28;20183;-89
2022/10/29 00:25:28;;;;;;;15.55;5.80;;;17.40;99.90;;;;;;4184217;28;20248;-89
2022/10/29 00:27:29;;;;;;;20.17;6.18;;;17.40;99.90;;;;;;4168755;28;20206;-93
2022/10/29 00:29:29;;;;;;;16.95;6.05;;;17.40;99.90;;;;;;4185522;28;20171;-88
2022/10/29 00:31:30;;;;;;;15.63;5.70;;;17.40;99.90;;;;;;4187006;28;20238;-94
2022/10/29 00:33:31;;;;;;;17.55;5.95;;;17.30;99.90;;;;;;4171036;28;20180;-89
2022/10/29 00:35:32;;;;;;;17.95;5.57;;;17.40;99.90;;;;;;4168930;28;20212;-90
2022/10/29 00:37:34;;;;;;;20.30;6.35;;;17.50;99.90;;;;;;4186150;28;20174;-90
2022/10/29 00:39:34;;;;;;;19.13;5.72;;;17.50;99.90;;;;;;4200365;28;20220;-95
2022/10/29 00:41:35;;;;;;;18.42;5.78;;;17.40;99.90;;;;;;4170008;28;20271;-88
2022/10/29 00:43:39;;;;;;;20.77;6.05;;;17.40;99.90;;;;;;4186398;28;20175;-89
2022/10/29 00:45:46;;;;;;;15.35;5.97;;;17.40;99.90;;;;;;4201658;28;20566;-89
2022/10/29 00:47:50;;;;;;;15.50;5.68;;;17.50;99.90;;;;;;4168906;28;20170;-89
2022/10/29 00:50:08;;;;;;;21.45;6.35;;;17.40;99.90;;;;;;4167892;28;20177;-89
2022/10/29 00:52:09;;;;;;;17.80;5.65;;;17.40;99.90;;;;;;4184587;28;20199;-91
2022/10/29 00:54:12;;;;;;;21.90;6.10;;;17.40;99.90;;;;;;4184095;28;20595;-89
2022/10/29 00:56:15;;;;;;;22.15;7.45;;;17.40;99.90;;;;;;4199707;28;20739;-89
2022/10/29 00:58:15;;;;;;;20.48;6.90;;;17.60;99.90;;;;;;4168628;28;20168;-89
2022/10/29 01:00:18;;;;;;;20.88;7.88;;;17.60;99.90;;;;;;4184939;28;20178;-95
2022/10/29 01:02:19;;;;;;;15.40;7.05;;;17.70;99.90;;;;;;4185233;28;20203;-88
2022/10/29 01:04:22;;;;;;;18.15;7.57;;;17.80;99.90;;;;;;4183550;28;20171;-89
2022/10/29 01:06:23;;;;;;;19.15;7.60;;;17.60;99.90;;;;;;4168812;28;20270;-89
2022/10/29 01:08:24;;;;;;;22.67;7.50;;;17.50;99.90;;;;;;4184711;28;20282;-89
2022/10/29 01:10:50;;;;;;;18.27;7.47;;;17.60;99.90;;;;;;4167692;28;20172;-88
2022/10/29 01:13:01;;;;;;;20.33;7.55;;;17.60;99.90;;;;;;4167449;28;20196;-89
2022/10/29 01:15:08;;;;;;;17.65;7.93;;;17.50;99.90;;;;;;4167544;28;20219;-88
2022/10/29 01:17:56;;;;;;;21.33;8.38;;;17.40;99.90;;;;;;4168142;28;20172;-95
2022/10/29 01:20:20;;;;;;;20.17;8.38;;;17.40;99.90;;;;;;4137554;28;20186;-96
2022/10/29 01:22:46;;;;;;;23.23;7.43;;;17.20;99.90;;;;;;4169524;28;20196;-95
2022/10/29 01:25:17;;;;;;;20.83;8.55;;;17.10;99.90;;;;;;4168251;28;20169;-89
2022/10/29 01:27:40;;;;;;;20.95;7.60;;;17.00;99.90;;;;;;4166818;28;20219;-89
2022/10/29 01:29:59;;;;;;;24.02;8.40;;;16.90;99.90;;;;;;4168067;28;20649;-90
2022/10/29 01:32:11;;;;;;;25.33;7.65;;;16.80;99.90;;;;;;4184853;28;20192;-94
2022/10/29 01:34:17;;;;;;;26.05;7.32;;;16.80;99.90;;;;;;4168020;28;20553;-89
2022/10/29 01:36:27;;;;;;;22.20;7.78;;;16.90;99.90;;;;;;4183676;28;20686;-89
2022/10/29 01:38:33;;;;;;;20.08;7.22;;;17.00;99.90;;;;;;4166927;28;20175;-89
2022/10/29 01:40:54;;;;;;;18.65;7.45;;;17.00;99.90;;;;;;4167848;28;20253;-93
2022/10/29 01:43:05;;;;;;;18.45;7.38;;;17.00;99.90;;;;;;4168358;28;20652;-89
2022/10/29 01:45:11;;;;;;;18.77;6.90;;;17.00;99.90;;;;;;4183857;28;20159;-90
2022/10/29 01:47:18;;;;;;;19.98;6.97;;;17.10;99.90;;;;;;4168154;28;20227;-89
2022/10/29 01:49:25;;;;;;;18.13;6.97;;;17.00;99.90;;;;;;4182975;28;20640;-89
2022/10/29 01:51:30;;;;;;;29.60;7.63;;;16.90;99.90;;;;;;4167023;28;20199;-89
2022/10/29 01:53:34;;;;;;;19.52;6.72;;;17.00;99.90;;;;;;4182740;28;20248;-96
2022/10/29 01:55:35;;;;;;;25.05;7.57;;;16.90;99.90;;;;;;4183561;28;20200;-95
2022/10/29 01:57:37;;;;;;;18.80;6.32;;;16.90;99.90;;;;;;4185422;28;20175;-96
2022/10/29 01:59:38;;;;;;;16.67;5.97;;;16.80;99.90;;;;;;4183322;28;20179;-89
2022/10/29 02:01:44;;;;;;;26.13;6.78;;;16.90;99.90;;;;;;4166972;28;20270;-90
2022/10/29 02:04:05;;;;;;;26.35;7.72;;;17.00;99.90;;;;;;4168064;28;20183;-92
2022/10/29 02:06:13;;;;;;;15.48;6.28;;;17.00;99.90;;;;;;4166501;28;20172;-96
2022/10/29 02:08:38;;;;;;;21.63;7.13;;;17.00;99.90;;;;;;4199609;28;20243;-89
2022/10/29 02:11:14;;;;;;;22.27;7.32;;;17.00;99.90;;;;;;4166759;28;20258;-89
2022/10/29 02:13:17;;;;;;;27.67;6.95;;;16.90;99.90;;;;;;4165065;28;20194;-89
2022/10/29 02:15:20;;;;;;;19.60;6.32;;;16.80;99.90;;;;;;4182949;28;20211;-95
2022/10/29 02:17:21;;;;;;;23.80;7.13;;;16.80;99.90;;;;;;4183588;28;20179;-91
2022/10/29 02:19:22;;;;;;;16.02;6.97;;;16.70;99.90;;;;;;4167058;28;20185;-91
2022/10/29 02:21:23;;;;;;;18.92;6.45;;;16.70;99.90;;;;;;4183658;28;20655;-89
2022/10/29 02:23:24;;;;;;;21.95;6.03;;;16.70;99.90;;;;;;4167971;28;20164;-89
2022/10/29 02:25:26;;;;;;;19.33;6.60;;;16.70;99.90;;;;;;4183325;28;20219;-89
2022/10/29 02:27:27;;;;;;;25.65;7.60;;;16.80;99.90;;;;;;4166779;28;20253;-89
2022/10/29 02:29:27;;;;;;;21.75;7.75;;;16.90;99.90;;;;;;4166117;28;20172;-96
2022/10/29 02:31:28;;;;;;;23.42;7.53;;;16.90;99.90;;;;;;4167319;28;20196;-89
2022/10/29 02:33:29;;;;;;;26.70;7.40;;;16.90;99.90;;;;;;4185011;28;20163;-89
2022/10/29 02:35:30;;;;;;;27.65;8.13;;;16.90;99.90;;;;;;4184480;28;20695;-96
2022/10/29 02:37:30;;;;;;;23.35;7.35;;;16.90;99.90;;;;;;4182375;28;20163;-89
2022/10/29 02:39:31;;;;;;;22.48;8.15;;;16.90;99.90;;;;;;4182918;28;20176;-89
2022/10/29 02:41:32;;;;;;;30.75;7.95;;;16.70;99.90;;;;;;4184116;28;20196;-90
2022/10/29 02:43:33;;;;;;;20.83;7.57;;;16.60;99.90;;;;;;4167077;28;20176;-88
2022/10/29 02:45:33;;;;;;;21.40;7.60;;;16.90;99.90;;;;;;4184407;28;20176;-89
2022/10/29 02:47:34;;;;;;;18.73;7.00;;;16.90;99.90;;;;;;4182845;28;20163;-88
2022/10/29 02:49:35;;;;;;;24.00;7.93;;;17.10;99.90;;;;;;4167891;28;20172;-95
2022/10/29 02:51:35;;;;;;;22.95;7.72;;;17.30;99.90;;;;;;4167069;28;20527;-90
2022/10/29 02:53:36;;;;;;;19.20;7.22;;;17.80;99.90;;;;;;4182005;28;20182;-88
2022/10/29 02:55:37;;;;;;;28.05;8.52;;;18.40;99.90;;;;;;4181665;28;20270;-88
2022/10/29 02:57:37;;;;;;;23.08;7.80;;;18.60;99.90;;;;;;4181730;28;20176;-88
2022/10/29 02:59:38;;;;;;;23.30;8.77;;;18.50;99.90;;;;;;4166517;28;20165;-88
2022/10/29 03:01:39;;;;;;;25.70;8.70;;;18.50;99.90;;;;;;4181731;28;20215;-88
2022/10/29 03:03:39;;;;;;;27.60;9.57;;;18.20;99.90;;;;;;4165804;28;20179;-89
2022/10/29 03:05:40;;;;;;;26.92;9.43;;;18.30;99.90;;;;;;4181876;28;20172;-88
2022/10/29 03:07:41;;;;;;;29.92;9.30;;;18.20;99.90;;;;;;4182515;28;20175;-92
2022/10/29 03:09:41;;;;;;;29.05;9.77;;;18.00;99.90;;;;;;4182319;28;20574;-88
2022/10/29 03:11:42;;;;;;;26.95;9.13;;;17.90;99.90;;;;;;4181680;28;20582;-89
2022/10/29 03:13:43;;;;;;;29.38;9.50;;;17.90;99.90;;;;;;4183160;28;20179;-89
2022/10/29 03:15:44;;;;;;;24.55;8.73;;;17.90;99.90;;;;;;4165655;28;20263;-94
2022/10/29 03:17:45;;;;;;;35.78;10.48;;;17.90;99.90;;;;;;4182629;28;20176;-95
2022/10/29 03:19:45;;;;;;;28.75;9.90;;;17.90;99.90;;;;;;4182347;28;20172;-96
2022/10/29 03:21:46;;;;;;;26.48;9.98;;;18.00;99.90;;;;;;4182344;28;20335;-94
2022/10/29 03:23:47;;;;;;;29.52;9.90;;;17.70;99.90;;;;;;4166567;28;20176;-89
2022/10/29 03:25:52;;;;;;;24.65;9.43;;;17.20;99.90;;;;;;4182719;28;20184;-90
2022/10/29 03:27:52;;;;;;;27.52;9.30;;;17.10;99.90;;;;;;4167171;28;20176;-89
2022/10/29 03:29:53;;;;;;;23.23;8.63;;;17.10;99.90;;;;;;4184432;28;20183;-89
2022/10/29 03:31:54;;;;;;;28.00;9.32;;;17.00;99.90;;;;;;4167905;28;20223;-89
2022/10/29 03:33:54;;;;;;;21.15;9.02;;;17.10;99.90;;;;;;4183024;28;20187;-96
2022/10/29 03:36:00;;;;;;;25.60;8.70;;;17.00;99.90;;;;;;4181960;28;20179;-89
2022/10/29 03:38:00;;;;;;;36.80;9.77;;;17.10;99.90;;;;;;4167896;28;20156;-95
2022/10/29 03:40:02;;;;;;;33.75;9.35;;;17.00;99.90;;;;;;4182858;28;20625;-93
2022/10/29 03:42:02;;;;;;;20.15;8.63;;;17.10;99.90;;;;;;4185880;28;20187;-90
2022/10/29 03:44:03;;;;;;;22.77;8.45;;;17.50;99.90;;;;;;4169143;28;20176;-88
2022/10/29 03:46:05;;;;;;;27.13;10.10;;;18.00;99.90;;;;;;4184529;28;20182;-90
2022/10/29 03:48:06;;;;;;;31.83;9.40;;;18.40;99.90;;;;;;4167836;28;20175;-88
2022/10/29 03:50:07;;;;;;;32.70;9.80;;;18.50;99.90;;;;;;4167153;28;20172;-89
2022/10/29 03:52:08;;;;;;;29.52;9.95;;;18.40;99.90;;;;;;4185099;28;20195;-96
2022/10/29 03:54:08;;;;;;;22.02;10.48;;;18.30;99.90;;;;;;4168514;28;20176;-88
2022/10/29 03:56:09;;;;;;;25.40;9.52;;;18.20;99.90;;;;;;4186133;28;20183;-88
2022/10/29 03:58:10;;;;;;;31.63;10.25;;;18.20;99.90;;;;;;4184848;28;20175;-88
2022/10/29 04:00:11;;;;;;;31.58;10.13;;;18.10;99.90;;;;;;4185479;28;20274;-88
2022/10/29 04:02:15;;;;;;;26.10;10.60;;;17.90;99.90;;;;;;4185326;28;20203;-96
2022/10/29 04:04:15;;;;;;;24.02;10.30;;;17.50;99.90;;;;;;4168003;28;20207;-89
2022/10/29 04:06:17;;;;;;;26.48;10.07;;;17.20;99.90;;;;;;4186448;28;20179;-88
2022/10/29 04:08:17;;;;;;;28.33;9.88;;;16.70;99.90;;;;;;4187256;28;20167;-96
2022/10/29 04:10:18;;;;;;;22.38;9.55;;;16.90;99.90;;;;;;4184887;28;20221;-89
2022/10/29 04:12:19;;;;;;;24.00;10.20;;;17.20;99.90;;;;;;4185726;28;20187;-89
2022/10/29 04:14:19;;;;;;;30.00;9.68;;;17.30;99.90;;;;;;4168675;28;20215;-89
2022/10/29 04:16:20;;;;;;;22.33;9.43;;;17.60;99.90;;;;;;4184829;28;20237;-90
2022/10/29 04:18:23;;;;;;;30.77;9.57;;;17.90;99.90;;;;;;4185083;28;20179;-89
2022/10/29 04:20:23;;;;;;;31.10;9.85;;;18.00;99.90;;;;;;4169443;28;20298;-88
2022/10/29 04:22:24;;;;;;;30.52;9.55;;;18.10;99.90;;;;;;4185277;28;20195;-88
2022/10/29 04:24:25;;;;;;;24.80;9.30;;;17.90;99.90;;;;;;4185518;28;20672;-88
2022/10/29 04:26:25;;;;;;;27.17;9.40;;;17.70;99.90;;;;;;4168158;28;20168;-89
2022/10/29 04:28:26;;;;;;;29.80;9.48;;;17.30;99.90;;;;;;4184798;28;20175;-88
2022/10/29 04:30:27;;;;;;;24.63;8.60;;;17.20;99.90;;;;;;4184475;28;20634;-95
2022/10/29 04:32:28;;;;;;;21.65;9.02;;;17.10;99.90;;;;;;4168496;28;20198;-90
2022/10/29 04:34:29;;;;;;;22.45;8.23;;;17.10;99.90;;;;;;4184356;28;20282;-89
2022/10/29 04:36:29;;;;;;;24.90;8.80;;;17.10;99.90;;;;;;4185859;28;20237;-90
2022/10/29 04:38:30;;;;;;;28.52;9.25;;;17.10;99.90;;;;;;4185356;28;20243;-89
2022/10/29 04:40:31;;;;;;;23.63;8.40;;;17.10;99.90;;;;;;4185142;28;20195;-89
2022/10/29 04:42:36;;;;;;;26.48;8.43;;;17.20;99.90;;;;;;4185713;28;20603;-88
2022/10/29 04:44:37;;;;;;;24.40;8.43;;;17.20;99.90;;;;;;4187204;28;20248;-90
2022/10/29 04:46:37;;;;;;;22.77;8.20;;;17.20;99.90;;;;;;4185475;28;20199;-96
2022/10/29 04:48:38;;;;;;;21.63;8.23;;;17.20;99.90;;;;;;4185407;28;20640;-91
2022/10/29 04:50:39;;;;;;;21.42;7.97;;;17.20;99.90;;;;;;4184945;28;20213;-93
2022/10/29 04:52:39;;;;;;;22.50;7.55;;;17.10;99.90;;;;;;4183793;28;20196;-91
2022/10/29 04:54:40;;;;;;;21.38;7.10;;;17.10;99.90;;;;;;4183191;28;20571;-89
2022/10/29 04:56:41;;;;;;;24.77;7.85;;;17.00;99.90;;;;;;4184009;28;20183;-95
2022/10/29 04:58:41;;;;;;;26.65;7.53;;;17.00;99.90;;;;;;4184655;28;20164;-96
2022/10/29 05:00:45;;;;;;;20.15;7.75;;;16.90;99.90;;;;;;4184988;28;20910;-96
2022/10/29 05:02:48;;;;;;;26.67;8.00;;;16.90;99.90;;;;;;4183192;28;20202;-88
2022/10/29 05:04:49;;;;;;;20.52;7.55;;;17.00;99.90;;;;;;4166531;28;20259;-95
2022/10/29 05:06:49;;;;;;;21.30;7.50;;;16.90;99.90;;;;;;4183767;28;20176;-96
2022/10/29 05:08:50;;;;;;;17.10;7.07;;;16.80;99.90;;;;;;4166645;28;20259;-95
2022/10/29 05:10:51;;;;;;;25.38;6.85;;;16.80;99.90;;;;;;4182937;28;20537;-89
2022/10/29 05:13:02;;;;;;;23.73;7.88;;;16.80;99.90;;;;;;4167973;28;20700;-96
2022/10/29 05:15:03;;;;;;;25.92;7.60;;;16.80;99.90;;;;;;4182872;28;20219;-88
2022/10/29 05:17:04;;;;;;;27.98;7.88;;;16.80;99.90;;;;;;4167355;28;20176;-89
2022/10/29 05:19:05;;;;;;;20.27;8.00;;;16.80;99.90;;;;;;4167005;28;20584;-88
2022/10/29 05:21:06;;;;;;;21.73;7.72;;;16.70;99.90;;;;;;4184750;28;20517;-89
2022/10/29 05:23:09;;;;;;;19.70;7.55;;;16.70;99.90;;;;;;4183147;28;20193;-91
2022/10/29 05:25:09;;;;;;;17.85;7.32;;;16.80;99.90;;;;;;4167404;28;20263;-96
2022/10/29 05:27:10;;;;;;;32.28;8.23;;;16.80;99.90;;;;;;4182349;28;20540;-89
2022/10/29 05:29:11;;;;;;;17.00;7.00;;;16.80;99.90;;;;;;4166763;28;20625;-89
2022/10/29 05:31:12;;;;;;;17.30;7.53;;;16.80;99.90;;;;;;4183016;28;20187;-89
2022/10/29 05:33:17;;;;;;;29.30;8.13;;;16.70;99.90;;;;;;4182891;28;20243;-92
2022/10/29 05:35:18;;;;;;;24.23;7.32;;;16.90;99.90;;;;;;4166901;28;20208;-89
2022/10/29 05:37:19;;;;;;;26.05;8.20;;;16.90;99.90;;;;;;4184611;28;20689;-89
2022/10/29 05:39:19;;;;;;;26.67;8.13;;;16.90;99.90;;;;;;4168913;28;20168;-94
2022/10/29 05:41:20;;;;;;;25.02;7.13;;;16.90;99.90;;;;;;4183609;28;20195;-89
2022/10/29 05:43:21;;;;;;;21.65;7.78;;;16.80;99.90;;;;;;4184046;28;20171;-88
2022/10/29 05:45:21;;;;;;;25.30;7.30;;;16.80;99.90;;;;;;4166761;28;20168;-96
2022/10/29 05:47:22;;;;;;;22.02;7.38;;;16.80;99.90;;;;;;4184311;28;20273;-88
2022/10/29 05:49:23;;;;;;;21.92;7.40;;;16.80;99.90;;;;;;4167496;28;20195;-93
2022/10/29 05:51:23;;;;;;;20.60;7.10;;;16.70;99.90;;;;;;4183185;28;20219;-93
2022/10/29 05:53:24;;;;;;;23.50;7.55;;;16.80;99.90;;;;;;4182513;28;20171;-88
2022/10/29 05:55:25;;;;;;;22.77;7.90;;;16.80;99.90;;;;;;4166787;28;20341;-93
2022/10/29 05:57:27;;;;;;;20.98;7.82;;;16.70;99.90;;;;;;4167948;28;20177;-89
2022/10/29 05:59:27;;;;;;;21.58;7.65;;;16.80;99.90;;;;;;4182952;28;20182;-89
2022/10/29 06:01:28;;;;;;;23.95;7.68;;;16.70;99.90;;;;;;4183548;28;20191;-89
2022/10/29 06:03:29;;;;;;;21.23;7.28;;;16.60;99.90;;;;;;4166465;28;20195;-91
2022/10/29 06:05:29;;;;;;;22.48;7.95;;;16.80;99.90;;;;;;4166597;28;20175;-90
2022/10/29 06:07:31;;;;;;;24.30;8.23;;;17.30;99.90;;;;;;4183132;28;20222;-95
2022/10/29 06:09:32;;;;;;;23.73;8.32;;;17.90;99.90;;;;;;4182395;28;20273;-95
2022/10/29 06:11:32;;;;;;;35.47;8.20;;;17.90;99.90;;;;;;4182537;28;20195;-88
2022/10/29 06:13:33;;;;;;;20.90;7.60;;;17.90;99.90;;;;;;4183046;28;20630;-89
2022/10/29 06:15:34;;;;;;;23.98;8.55;;;17.70;99.90;;;;;;4198374;28;20202;-88
2022/10/29 06:17:40;;;;;;;25.88;8.30;;;17.90;99.90;;;;;;4165380;28;20173;-88
2022/10/29 06:19:41;;;;;;;22.38;8.38;;;17.70;99.90;;;;;;4200307;28;20178;-88
2022/10/29 06:21:41;;;;;;;28.00;7.78;;;17.20;99.90;;;;;;4167508;28;20188;-91
2022/10/29 06:23:42;;;;;;;23.88;7.97;;;17.00;99.90;;;;;;4165851;28;20607;-89
2022/10/29 06:25:43;;;;;;;24.80;7.30;;;16.70;99.90;;;;;;4183050;28;20232;-89
2022/10/29 06:27:43;;;;;;;24.02;7.40;;;16.60;99.90;;;;;;4183293;28;20623;-88
2022/10/29 06:29:44;;;;;;;26.38;8.30;;;16.60;99.90;;;;;;4182732;28;20686;-89
2022/10/29 06:31:45;;;;;;;20.50;7.53;;;16.50;99.90;;;;;;4184145;28;20294;-89
2022/10/29 06:33:45;;;;;;;27.10;8.10;;;16.70;99.90;;;;;;4183704;28;20182;-88
2022/10/29 06:35:47;;;;;;;18.58;7.60;;;17.20;99.90;;;;;;4182884;28;20218;-89
2022/10/29 06:37:48;;;;;;;24.05;7.60;;;17.40;99.90;;;;;;4183882;28;20171;-88
2022/10/29 06:39:48;;;;;;;30.00;8.57;;;17.20;99.90;;;;;;4183963;28;20266;-89
2022/10/29 06:41:49;;;;;;;17.73;7.15;;;17.00;99.90;;;;;;4184978;28;20195;-95
2022/10/29 06:43:52;;;;;;;21.80;7.35;;;16.70;99.90;;;;;;4183404;28;20203;-95
2022/10/29 06:45:53;;;;;;;24.30;7.18;;;16.70;99.90;;;;;;4184905;28;20564;-91
2022/10/29 06:47:54;;;;;;;17.15;6.78;;;16.60;99.90;;;;;;4184731;28;20163;-95
2022/10/29 06:49:54;;;;;;;23.05;6.65;;;16.40;99.90;;;;;;4165405;28;20640;-89
2022/10/29 06:51:55;;;;;;;24.45;7.70;;;16.40;99.90;;;;;;4167331;28;20192;-92
2022/10/29 06:53:56;;;;;;;22.58;6.78;;;16.50;99.90;;;;;;4166810;28;20621;-89
2022/10/29 06:55:58;;;;;;;19.52;7.10;;;16.50;99.90;;;;;;4166886;28;20691;-89
2022/10/29 06:58:04;;;;;;;20.00;6.32;;;16.50;99.90;;;;;;4184015;28;20175;-95
2022/10/29 07:00:05;;;;;;;18.65;6.97;;;16.40;99.90;;;;;;4167087;28;20168;-93
2022/10/29 07:02:06;;;;;;;17.05;7.07;;;16.50;99.90;;;;;;4166489;28;20207;-89
2022/10/29 07:04:07;;;;;;;16.45;6.05;;;16.50;99.90;;;;;;4183341;28;20486;-96
2022/10/29 07:06:07;;;;;;;18.30;6.90;;;16.40;99.90;;;;;;4165959;28;20168;-89
2022/10/29 07:08:08;;;;;;;25.45;6.93;;;16.50;99.90;;;;;;4181379;28;20198;-89
2022/10/29 07:10:09;;;;;;;18.38;6.47;;;16.50;99.90;;;;;;4166396;28;20169;-89
2022/10/29 07:12:10;;;;;;;18.42;6.10;;;16.60;99.90;;;;;;4183084;28;20253;-89
2022/10/29 07:14:11;;;;;;;19.05;7.05;;;16.60;99.90;;;;;;4182046;28;20172;-88
2022/10/29 07:16:11;;;;;;;28.45;6.93;;;16.70;99.90;;;;;;4189337;28;20678;-91
2022/10/29 07:18:12;;;;;;;16.48;6.25;;;16.80;99.90;;;;;;4170609;28;20655;-89
2022/10/29 07:20:13;;;;;;;17.23;6.13;;;16.90;99.90;;;;;;4169744;28;20311;-89
2022/10/29 07:22:13;;;;;;;16.52;6.20;;;17.10;99.90;;;;;;4184931;28;20187;-91
2022/10/29 07:24:16;;;;;;;15.27;6.40;;;17.10;99.90;;;;;;4187868;28;20191;-96
2022/10/29 07:26:17;;;;;;;17.77;6.25;;;17.20;99.90;;;;;;4187816;28;20299;-89
2022/10/29 07:28:20;;;;;;;16.88;6.90;;;17.30;99.90;;;;;;4189005;28;20188;-95
2022/10/29 07:30:21;;;;;;;22.52;6.72;;;17.30;99.90;;;;;;4203796;28;20603;-90
2022/10/29 07:32:23;;;;;;;24.67;7.03;;;17.30;99.90;;;;;;4175796;28;20188;-90
2022/10/29 07:34:23;;;;;;;20.17;6.70;;;17.40;99.90;;;;;;4176414;28;20216;-89
2022/10/29 07:36:24;;;;;;;23.52;6.50;;;17.40;99.90;;;;;;4191885;28;20174;-88
2022/10/29 07:38:25;;;;;;;19.63;6.30;;;17.50;99.90;;;;;;4172721;28;20545;-89
2022/10/29 07:40:27;;;;;;;18.70;6.55;;;17.60;99.90;;;;;;4208423;28;20171;-89
2022/10/29 07:42:28;;;;;;;19.02;6.10;;;17.70;99.90;;;;;;4172217;28;20168;-89
2022/10/29 07:44:28;;;;;;;20.90;6.65;;;17.70;99.90;;;;;;4190810;28;20179;-89
2022/10/29 07:46:29;;;;;;;17.27;5.88;;;17.80;99.90;;;;;;4174121;28;20172;-89
2022/10/29 07:48:30;;;;;;;15.77;6.03;;;17.90;99.90;;;;;;4191917;28;20207;-90
2022/10/29 07:50:31;;;;;;;25.33;6.82;;;17.90;99.90;;;;;;4171608;28;20183;-90
2022/10/29 07:52:31;;;;;;;22.90;5.75;;;18.10;99.90;;;;;;4174321;28;20214;-89
2022/10/29 07:54:32;;;;;;;15.70;5.85;;;18.20;99.90;;;;;;4191180;28;20210;-89
2022/10/29 07:56:32;;;;;;;22.20;5.65;;;18.20;99.90;;;;;;4173493;28;20179;-89
2022/10/29 07:58:33;;;;;;;19.17;6.20;;;18.20;99.90;;;;;;4190329;28;20602;-90
2022/10/29 08:00:36;;;;;;;15.90;5.55;;;18.30;99.90;;;;;;4172044;28;20235;-89
2022/10/29 08:02:37;;;;;;;21.55;5.60;;;18.40;99.90;;;;;;4189150;28;20207;-89
2022/10/29 08:04:37;;;;;;;20.73;5.72;;;18.50;99.90;;;;;;4188854;28;20168;-88
2022/10/29 08:06:39;;;;;;;21.73;5.53;;;18.50;99.90;;;;;;4186956;28;20183;-89
2022/10/29 08:08:39;;;;;;;20.20;5.57;;;18.60;99.90;;;;;;4170249;28;20168;-89
2022/10/29 08:10:40;;;;;;;23.02;5.47;;;18.70;99.90;;;;;;4188480;28;20251;-89
2022/10/29 08:12:51;;;;;;;16.27;5.13;;;18.80;99.90;;;;;;4188179;28;20199;-88
2022/10/29 08:14:52;;;;;;;20.75;4.90;;;19.00;99.90;;;;;;4187657;28;20591;-88
2022/10/29 08:16:53;;;;;;;22.48;5.22;;;19.50;99.90;;;;;;4186669;28;20187;-92
2022/10/29 08:18:54;;;;;;;11.15;4.38;;;20.00;99.90;;;;;;4188854;28;20252;-89
2022/10/29 08:20:55;;;;;;;15.23;4.50;;;20.40;99.90;;;;;;4170142;28;20211;-96
2022/10/29 08:22:58;;;;;;;19.25;4.28;;;21.30;99.90;;;;;;4187534;28;20195;-88
2022/10/29 08:24:59;;;;;;;17.27;4.20;;;21.90;99.90;;;;;;4186151;28;20197;-89
2022/10/29 08:27:00;;;;;;;14.02;4.40;;;22.10;99.90;;;;;;4167944;28;20362;-94
2022/10/29 08:29:00;;;;;;;19.80;5.07;;;22.30;99.90;;;;;;4169978;28;20537;-95
2022/10/29 08:31:01;;;;;;;20.02;4.75;;;22.40;99.90;;;;;;4189557;28;20179;-90
2022/10/29 08:33:03;;;;;;;15.25;4.03;;;22.90;99.90;;;;;;4189111;28;20184;-90
2022/10/29 08:35:04;;;;;;;18.33;4.72;;;23.60;99.90;;;;;;4167634;28;20266;-89
2022/10/29 08:37:05;;;;;;;23.25;4.63;;;23.90;99.90;;;;;;4187528;28;20187;-94
2022/10/29 08:39:08;;;;;;;19.10;4.72;;;23.80;99.90;;;;;;4174201;28;20180;-94
2022/10/29 08:41:27;;;;;;;19.55;4.47;;;23.80;99.90;;;;;;4173191;28;20204;-95
2022/10/29 08:43:54;;;;;;;15.30;5.10;;;24.10;99.90;;;;;;4187321;28;20195;-96
2022/10/29 08:45:56;;;;;;;18.38;4.80;;;23.80;99.90;;;;;;4185947;28;20267;-89
2022/10/29 08:48:40;;;;;;;14.57;5.10;;;23.60;99.90;;;;;;4170679;28;20188;-88
2022/10/29 08:50:49;;;;;;;18.63;6.13;;;22.70;99.90;;;;;;4165575;28;20180;-88
2022/10/29 08:52:50;;;;;;;17.92;4.90;;;22.30;99.90;;;;;;4207761;28;20225;-88
2022/10/29 08:55:05;;;;;;;17.60;5.15;;;22.30;99.90;;;;;;4185822;28;20203;-89
2022/10/29 08:57:13;;;;;;;15.65;4.47;;;21.90;99.90;;;;;;4189978;28;20268;-88
2022/10/29 08:59:21;;;;;;;22.02;4.50;;;21.90;99.90;;;;;;4184993;28;20171;-89
2022/10/29 09:01:23;;;;;;;17.83;4.90;;;21.70;99.90;;;;;;4168887;28;20192;-95
2022/10/29 09:03:28;;;;;;;23.92;4.60;;;21.60;99.90;;;;;;4185754;28;20639;-88
2022/10/29 09:05:48;;;;;;;13.50;4.60;;;21.60;99.90;;;;;;4186981;28;20180;-94
2022/10/29 09:08:14;;;;;;;14.95;4.25;;;21.70;99.90;;;;;;4186843;28;20217;-96
2022/10/29 09:10:33;;;;;;;15.07;4.30;;;21.50;99.90;;;;;;4204472;28;20186;-87
2022/10/29 09:12:55;;;;;;;16.60;4.28;;;21.30;99.90;;;;;;4169048;28;20200;-88
2022/10/29 09:15:17;;;;;;;20.77;4.78;;;21.30;99.90;;;;;;4168335;28;20237;-90
2022/10/29 09:17:32;;;;;;;14.68;4.28;;;21.30;99.90;;;;;;4184918;28;20195;-90
2022/10/29 09:19:51;;;;;;;13.48;4.32;;;21.40;99.90;;;;;;4170222;28;20190;-88
2022/10/29 09:22:32;;;;;;;14.75;4.22;;;21.30;99.90;;;;;;4187468;28;20251;-95
2022/10/29 09:24:54;;;;;;;16.98;4.38;;;21.00;99.90;;;;;;4169500;28;20529;-89
2022/10/29 09:27:00;;;;;;;13.52;4.18;;;21.10;99.90;;;;;;4165706;28;20180;-94
2022/10/29 09:29:25;;;;;;;16.58;4.43;;;21.10;99.90;;;;;;4182244;28;20183;-95
2022/10/29 09:31:47;;;;;;;17.45;4.57;;;21.10;99.90;;;;;;4165533;28;20228;-94
2022/10/29 09:33:51;;;;;;;19.20;4.55;;;21.20;99.90;;;;;;4182327;28;20164;-95
2022/10/29 09:35:54;;;;;;;17.42;4.63;;;21.30;99.90;;;;;;4165416;28;20671;-88
2022/10/29 09:38:04;;;;;;;16.20;4.20;;;21.40;99.90;;;;;;4181659;28;20171;-94
2022/10/29 09:40:37;;;;;;;20.88;4.63;;;21.60;99.90;;;;;;4181852;28;20187;-88
2022/10/29 09:42:41;;;;;;;15.57;4.15;;;21.60;99.90;;;;;;4179964;28;20206;-88
2022/10/29 09:44:52;;;;;;;18.77;3.90;;;21.60;99.90;;;;;;4181639;28;20233;-89
2022/10/29 09:47:21;;;;;;;21.15;4.70;;;21.50;99.90;;;;;;4165344;28;20171;-89
2022/10/29 09:50:01;;;;;;;13.23;3.95;;;21.60;99.90;;;;;;4165451;28;20172;-89
2022/10/29 09:52:25;;;;;;;15.25;3.97;;;21.70;99.90;;;;;;4165339;28;20252;-89
2022/10/29 09:54:29;;;;;;;15.38;4.30;;;21.70;99.90;;;;;;4164798;28;20175;-89
2022/10/29 09:56:30;;;;;;;22.92;4.22;;;21.70;99.90;;;;;;4181517;28;20175;-88
2022/10/29 09:58:36;;;;;;;12.15;3.90;;;21.80;99.90;;;;;;4197909;28;20178;-94
2022/10/29 10:00:37;;;;;;;18.00;4.15;;;21.90;99.90;;;;;;4197985;28;20170;-89
2022/10/29 10:02:43;;;;;;;17.10;4.18;;;21.90;99.90;;;;;;4182119;28;20666;-89
2022/10/29 10:04:48;;;;;;;33.72;5.78;;;22.10;99.90;;;;;;4181898;28;20187;-89
2022/10/29 10:07:10;;;;;;;13.73;3.80;;;22.20;99.90;;;;;;4165200;28;20220;-95
2022/10/29 10:09:11;;;;;;;18.15;3.97;;;22.20;99.90;;;;;;4165155;28;20263;-89
2022/10/29 10:11:18;;;;;;;20.38;3.95;;;22.30;99.90;;;;;;4181307;28;20171;-89
2022/10/29 10:13:23;;;;;;;15.38;3.90;;;22.30;99.90;;;;;;4181563;28;20294;-89
2022/10/29 10:15:35;;;;;;;19.63;3.70;;;22.30;99.90;;;;;;4181155;28;20753;-89
2022/10/29 10:18:03;;;;;;;15.40;4.13;;;22.20;99.90;;;;;;4181348;28;20174;-89
2022/10/29 10:20:25;;;;;;;15.32;3.95;;;22.40;99.90;;;;;;4181448;28;20168;-88
2022/10/29 10:22:26;;;;;;;16.42;3.97;;;22.60;99.90;;;;;;4181130;28;20631;-88
2022/10/29 10:24:37;;;;;;;16.33;3.53;;;22.80;99.90;;;;;;4181428;28;20182;-88
2022/10/29 10:26:42;;;;;;;16.90;3.83;;;23.00;99.90;;;;;;4181022;28;20171;-93
2022/10/29 10:28:43;;;;;;;12.82;3.88;;;23.20;99.90;;;;;;4181093;28;20674;-88
2022/10/29 10:30:49;;;;;;;16.60;4.05;;;23.20;99.90;;;;;;4164800;28;20197;-89
2022/10/29 10:32:50;;;;;;;17.85;4.03;;;23.20;99.90;;;;;;4181138;28;20202;-88
2022/10/29 10:34:50;;;;;;;19.98;4.15;;;23.30;99.90;;;;;;4180925;28;20590;-88
2022/10/29 10:36:55;;;;;;;11.25;3.63;;;23.40;99.90;;;;;;4180997;28;20186;-89
2022/10/29 10:38:59;;;;;;;17.48;3.85;;;23.40;99.90;;;;;;4181227;28;20205;-88